Time;durP1;ratioP1;P1;durP2;ratioP2;P2;SDS_P1;SDS_P2;PMS_P1;PMS_P2;Temp;Humidity;BMP_temperature;BMP_pressure;BME280_temperature;BME280_humidity;BME280_pressure;Samples;Min_cycle;Max_cycle;Signal;HPM_P1;HPM_P2
2021/12/24 00:01:07;;;;;;;57.80;23.83;;;;;;;-1.87;67.15;100268.81;5089535;28;20124;-48
2021/12/24 00:03:33;;;;;;;56.05;24.02;;;;;;;-1.75;66.69;100260.09;5089302;28;20103;-49
2021/12/24 00:05:59;;;;;;;54.15;21.75;;;;;;;-1.77;66.69;100264.63;5089041;28;20533;-52
2021/12/24 00:08:24;;;;;;;51.30;22.85;;;;;;;-1.69;67.05;100266.66;5089349;28;20024;-51
2021/12/24 00:10:58;;;;;;;48.72;22.25;;;;;;;-1.70;66.58;100265.81;5089727;28;20079;-48
2021/12/24 00:13:24;;;;;;;49.22;22.10;;;;;;;-1.75;66.86;100270.56;5089718;28;20024;-52
2021/12/24 00:19:02;;;;;;;53.92;23.38;;;;;;;-2.16;69.18;100259.50;5089845;28;20024;-50
2021/12/24 00:37:08;;;;;;;61.85;24.80;;;;;;;-2.02;68.60;100262.91;5090637;28;20039;-49
2021/12/24 00:39:39;;;;;;;60.17;24.85;;;;;;;-2.03;67.72;100256.03;5090275;28;20027;-48
2021/12/24 00:42:05;;;;;;;55.30;24.13;;;;;;;-2.08;67.96;100261.56;5090173;28;20089;-48
2021/12/24 00:44:30;;;;;;;54.35;23.63;;;;;;;-2.26;69.62;100258.50;5090375;28;20111;-47
2021/12/24 00:46:56;;;;;;;54.78;24.25;;;;;;;-2.00;67.30;100256.66;5089979;28;20336;-48
2021/12/24 00:49:21;;;;;;;52.53;24.20;;;;;;;-1.86;67.47;100253.06;5090158;28;20093;-47
2021/12/24 00:52:07;;;;;;;48.60;23.25;;;;;;;-1.74;65.98;100243.50;5090333;28;20070;-48
2021/12/24 00:57:19;;;;;;;47.78;21.33;;;;;;;-1.77;67.00;100238.53;5090220;28;20140;-47
2021/12/24 00:59:45;;;;;;;50.78;23.25;;;;;;;-1.85;67.52;100225.16;5089876;28;20546;-51
2021/12/24 01:02:10;;;;;;;57.10;24.33;;;;;;;-1.85;68.26;100219.97;5089005;28;20020;-48
2021/12/24 01:04:36;;;;;;;58.50;24.58;;;;;;;-2.03;68.22;100229.97;5089583;28;20196;-48
2021/12/24 01:07:02;;;;;;;58.72;25.02;;;;;;;-2.13;70.63;100215.91;5089234;28;20048;-49
2021/12/24 01:09:27;;;;;;;59.05;26.30;;;;;;;-1.99;70.29;100208.75;5090188;28;20483;-48
2021/12/24 01:11:53;;;;;;;63.42;27.30;;;;;;;-2.07;70.36;100198.06;5090123;28;20472;-48
2021/12/24 01:14:20;;;;;;;60.92;26.52;;;;;;;-2.05;68.55;100188.34;5090494;28;20426;-47
2021/12/24 01:16:56;;;;;;;54.92;25.30;;;;;;;-2.24;69.02;100183.63;5089926;28;20456;-49
2021/12/24 01:19:24;;;;;;;57.80;26.73;;;;;;;-2.42;69.90;100187.53;5089818;28;20027;-47
2021/12/24 01:24:29;;;;;;;67.03;27.67;;;;;;;-1.99;69.68;100189.66;5089370;28;20082;-49
2021/12/24 01:27:10;;;;;;;63.20;27.05;;;;;;;-1.88;68.07;100186.28;5089159;28;20076;-48
2021/12/24 01:38:08;;;;;;;57.92;25.92;;;;;;;-2.12;68.59;100161.03;5089045;28;20521;-50
2021/12/24 01:43:05;;;;;;;59.17;26.35;;;;;;;-1.90;67.54;100149.03;5089332;28;20455;-51
2021/12/24 01:45:35;;;;;;;53.97;25.15;;;;;;;-1.62;65.96;100132.97;5088958;28;20020;-51
2021/12/24 01:48:02;;;;;;;;;;;;;;;-1.46;65.15;100131.81;5088217;28;20024;-52
2021/12/24 01:50:32;;;;;;;54.65;24.45;;;;;;;-1.70;65.44;100119.66;5088844;28;19916;-49
2021/12/24 01:52:57;;;;;;;52.55;24.55;;;;;;;-1.73;65.80;100119.06;5089385;28;20460;-49
2021/12/24 01:55:23;;;;;;;58.53;25.80;;;;;;;-1.78;65.72;100104.59;5089022;28;20020;-51
2021/12/24 01:57:49;;;;;;;57.72;25.52;;;;;;;-1.75;66.40;100106.16;5087325;28;20036;-52
2021/12/24 02:00:21;;;;;;;54.75;24.38;;;;;;;-1.96;65.44;100113.81;5089019;28;20046;-50
2021/12/24 02:02:47;;;;;;;52.78;24.23;;;;;;;-1.81;65.55;100101.38;5089028;28;20027;-50
2021/12/24 02:05:13;;;;;;;55.28;25.13;;;;;;;-1.79;65.82;100104.69;5088786;28;20017;-50
2021/12/24 02:07:38;;;;;;;53.28;25.02;;;;;;;-1.78;65.59;100098.53;5088206;28;20402;-51
2021/12/24 02:10:09;;;;;;;52.78;24.20;;;;;;;-1.81;65.74;100098.75;5088661;28;20019;-51
2021/12/24 02:12:35;;;;;;;51.85;22.92;;;;;;;-1.94;66.14;100101.47;5090241;28;20094;-51
2021/12/24 02:15:07;;;;;;;58.60;24.85;;;;;;;-1.81;65.67;100091.78;5092995;28;20385;-51
2021/12/24 02:28:38;;;;;;;54.90;24.23;;;;;;;-1.91;66.71;100080.34;5092632;28;20093;-49
2021/12/24 02:31:14;;;;;;;55.40;23.17;;;;;;;-2.04;66.96;100087.44;5092378;28;20466;-49
2021/12/24 02:33:40;;;;;;;52.72;23.92;;;;;;;-1.99;66.61;100067.88;5092722;28;20024;-48
2021/12/24 02:36:05;;;;;;;55.22;23.80;;;;;;;-1.74;66.41;100078.28;5091390;28;20028;-50
2021/12/24 02:38:31;;;;;;;52.72;21.92;;;;;;;-1.78;64.63;100080.28;5092637;28;20024;-52
2021/12/24 02:40:57;;;;;;;56.17;23.25;;;;;;;-1.72;65.30;100053.72;5092332;28;20082;-51
2021/12/24 02:43:24;;;;;;;47.90;22.95;;;;;;;-2.01;65.91;100053.31;5092268;28;20016;-51
2021/12/24 02:45:52;;;;;;;57.75;23.15;;;;;;;-1.95;66.09;100052.03;5092530;28;20138;-50
2021/12/24 02:56:19;;;;;;;54.63;23.65;;;;;;;-2.13;65.63;100070.72;5091947;28;20043;-50
2021/12/24 02:58:46;;;;;;;49.67;23.77;;;;;;;-2.22;66.21;100071.38;5090164;28;20020;-51
2021/12/24 03:01:12;;;;;;;57.63;22.90;;;;;;;-2.12;66.75;100067.13;5091561;28;20024;-50
2021/12/24 03:03:38;;;;;;;47.92;23.67;;;;;;;-2.23;66.92;100062.75;5091493;28;20132;-49
2021/12/24 03:06:04;;;;;;;55.53;25.20;;;;;;;-2.30;67.82;100060.66;5091559;28;20131;-52
2021/12/24 03:08:30;;;;;;;53.53;24.65;;;;;;;-2.32;68.04;100070.38;5091464;28;20020;-50
2021/12/24 03:10:57;;;;;;;53.90;23.58;;;;;;;-2.25;66.39;100062.00;5091436;28;20052;-48
2021/12/24 03:13:23;;;;;;;55.95;24.90;;;;;;;-2.29;67.02;100039.72;5091788;28;20081;-49
2021/12/24 03:15:51;;;;;;;56.45;23.98;;;;;;;-2.45;67.23;100057.44;5089915;28;20450;-51
2021/12/24 03:18:23;;;;;;;54.42;24.55;;;;;;;-2.29;67.36;100064.97;5091702;28;20051;-51
2021/12/24 03:20:48;;;;;;;51.63;23.60;;;;;;;-1.97;65.43;100060.78;5091297;28;20028;-51
2021/12/24 03:23:35;;;;;;;52.35;23.75;;;;;;;-2.07;65.57;100054.59;5091127;28;20353;-52
2021/12/24 03:26:00;;;;;;;49.92;22.23;;;;;;;-2.28;66.58;100071.84;5090751;28;20098;-50
2021/12/24 03:28:26;;;;;;;49.03;22.35;;;;;;;-2.29;66.93;100075.38;5091057;28;20047;-50
2021/12/24 03:30:51;;;;;;;50.72;21.83;;;;;;;-2.05;65.54;100064.91;5091011;28;20047;-51
2021/12/24 03:33:16;;;;;;;52.15;23.50;;;;;;;-2.07;65.43;100054.59;5091069;28;20035;-52
2021/12/24 03:35:42;;;;;;;52.70;24.35;;;;;;;-1.86;65.72;100046.13;5090863;28;20027;-51
2021/12/24 03:38:07;;;;;;;54.22;23.88;;;;;;;-1.97;65.51;100036.47;5090959;28;20036;-50
2021/12/24 03:40:33;;;;;;;59.22;25.58;;;;;;;-2.33;66.98;100029.63;5090865;28;20160;-49
2021/12/24 03:42:58;;;;;;;58.05;25.75;;;;;;;-2.52;68.55;100037.97;5090900;28;20036;-52
2021/12/24 03:45:38;;;;;;;62.10;25.17;;;;;;;-2.43;66.94;100058.16;5090761;28;20028;-51
2021/12/24 03:48:14;;;;;;;55.17;23.83;;;;;;;-2.67;68.60;100035.53;5090717;28;20051;-52
2021/12/24 03:50:56;;;;;;;50.95;23.77;;;;;;;-2.43;67.13;100035.50;5091061;28;20035;-49
2021/12/24 03:56:05;;;;;;;48.65;21.95;;;;;;;-2.50;66.28;100036.09;5091124;28;20043;-51
2021/12/24 03:58:31;;;;;;;52.00;23.05;;;;;;;-2.51;66.68;100034.41;5090852;28;20023;-51
2021/12/24 04:00:56;;;;;;;53.28;23.15;;;;;;;-2.90;68.49;100025.94;5091170;28;20112;-50
2021/12/24 04:03:22;;;;;;;45.05;21.45;;;;;;;-2.86;68.71;100020.38;5090874;28;20044;-51
2021/12/24 04:05:47;;;;;;;49.90;21.65;;;;;;;-2.90;68.70;100018.97;5090978;28;20136;-52
2021/12/24 04:08:14;;;;;;;54.47;22.33;;;;;;;-2.94;68.80;100022.72;5090754;28;20031;-49
2021/12/24 04:10:40;;;;;;;52.47;22.08;;;;;;;-3.07;69.15;100021.94;5089151;28;20042;-52
2021/12/24 04:13:10;;;;;;;46.88;21.45;;;;;;;-2.95;69.09;100005.44;5090894;28;20221;-49
2021/12/24 04:15:36;;;;;;;48.13;21.52;;;;;;;-3.03;68.63;99992.13;5089856;28;20085;-48
2021/12/24 04:18:11;;;;;;;50.35;21.88;;;;;;;-2.70;67.38;99998.44;5090820;28;20059;-49
2021/12/24 04:26:04;;;;;;;51.85;20.25;;;;;;;-2.97;68.11;99978.66;5090456;28;20123;-51
2021/12/24 04:28:30;;;;;;;44.25;19.92;;;;;;;-3.11;67.72;99981.44;5090339;28;20023;-51
2021/12/24 04:30:55;;;;;;;49.10;20.80;;;;;;;-3.04;69.53;99982.66;5090568;28;20028;-51
2021/12/24 04:35:58;;;;;;;41.42;18.48;;;;;;;-3.46;70.24;99979.56;5089621;28;20043;-50
2021/12/24 04:39:36;;;;;;;43.17;18.85;;;;;;;-3.54;70.21;99978.34;5089821;28;20107;-51
2021/12/24 05:03:05;;;;;;;45.22;19.80;;;;;;;-3.46;69.64;99963.97;5089422;28;20042;-52
2021/12/24 05:10:35;;;;;;;44.53;19.02;;;;;;;-3.27;69.99;99968.69;5089370;28;20024;-49
2021/12/24 05:13:00;;;;;;;42.47;18.90;;;;;;;-3.20;68.25;99975.09;5089151;28;20028;-49
2021/12/24 05:15:27;;;;;;;43.15;19.00;;;;;;;-3.21;68.66;99974.28;5088836;28;20042;-49
2021/12/24 05:23:02;;;;;;;71.68;29.50;;;;;;;-3.12;70.95;99983.22;5089738;28;20038;-51
2021/12/24 05:25:28;;;;;;;79.43;32.33;;;;;;;-3.22;72.02;99988.25;5089593;28;20069;-49
2021/12/24 05:27:55;;;;;;;61.88;26.55;;;;;;;-3.67;71.61;99972.31;5088203;28;20024;-48
2021/12/24 05:30:21;;;;;;;58.67;21.58;;;;;;;-3.54;72.40;99986.16;5071764;28;20024;-51
2021/12/24 05:32:47;;;;;;;42.30;18.50;;;;;;;-3.36;69.92;99983.19;5089473;28;20027;-51
2021/12/24 05:35:12;;;;;;;40.58;18.90;;;;;;;-3.34;69.11;99978.69;5089574;28;20085;-50
2021/12/24 05:37:38;;;;;;;39.33;18.33;;;;;;;-3.43;70.05;99987.97;5089630;28;20043;-49
2021/12/24 05:40:04;;;;;;;44.85;19.00;;;;;;;-3.54;70.19;99988.75;5089825;28;20081;-49
2021/12/24 05:42:31;;;;;;;46.17;18.95;;;;;;;-3.51;69.89;100007.69;5089527;28;20028;-50
2021/12/24 05:45:03;;;;;;;44.30;19.05;;;;;;;-3.16;69.93;100006.03;5089403;28;20028;-49
2021/12/24 05:47:29;;;;;;;72.97;30.38;;;;;;;-3.02;68.93;99992.03;5090343;28;20524;-50
2021/12/24 05:49:54;;;;;;;133.07;48.28;;;;;;;-3.04;72.11;99985.28;5093352;28;20028;-51
2021/12/24 05:52:20;;;;;;;84.00;36.05;;;;;;;-3.14;72.57;99992.91;5093557;28;20028;-50
2021/12/24 05:54:45;;;;;;;127.13;46.92;;;;;;;-2.93;71.47;99987.09;5093166;28;20468;-49
2021/12/24 05:57:10;;;;;;;112.20;42.42;;;;;;;-3.06;70.67;100006.22;5093272;28;20386;-51
2021/12/24 05:59:36;;;;;;;84.18;36.55;;;;;;;-3.22;73.29;100009.09;5093303;28;20538;-51
2021/12/24 06:02:02;;;;;;;58.15;24.63;;;;;;;-3.14;72.16;100000.72;5093316;28;20036;-49
2021/12/24 06:04:27;;;;;;;49.47;22.98;;;;;;;-2.10;75.57;99991.41;5093141;28;20035;-52
2021/12/24 06:06:52;;;;;;;47.33;22.13;;;;;;;-2.16;69.42;99990.09;5092917;28;20093;-51
2021/12/24 06:09:18;;;;;;;51.75;23.55;;;;;;;-1.92;70.36;99996.97;5093191;28;20032;-50
2021/12/24 06:11:43;;;;;;;50.70;23.45;;;;;;;-1.80;67.73;99994.28;5092833;28;20028;-49
2021/12/24 06:14:11;;;;;;;49.90;22.58;;;;;;;-2.04;70.12;99983.94;5093022;28;20060;-51
2021/12/24 06:16:45;;;;;;;48.65;22.70;;;;;;;-1.14;72.33;99988.31;5092679;28;20028;-37
2021/12/24 06:19:11;;;;;;;51.67;23.92;;;;;;;-1.39;65.51;99992.00;5091883;28;20030;-38
2021/12/24 06:21:36;;;;;;;58.90;27.02;;;;;;;-1.57;65.58;99994.28;5091808;28;20028;-39
2021/12/24 06:24:02;;;;;;;90.10;37.72;;;;;;;-2.00;68.14;99988.00;5091901;28;20089;-38
2021/12/24 06:26:27;;;;;;;80.88;31.75;;;;;;;-1.84;67.29;99989.44;5091717;28;20479;-38
2021/12/24 06:28:53;;;;;;;58.80;25.38;;;;;;;-1.68;66.61;99987.28;5079439;28;20086;-37
2021/12/24 06:31:18;;;;;;;51.35;22.55;;;;;;;-2.22;67.08;99983.56;5092198;28;20518;-37
2021/12/24 06:33:44;;;;;;;50.45;22.60;;;;;;;-2.19;68.20;99980.72;5091994;28;20028;-37
2021/12/24 06:36:09;;;;;;;43.88;20.05;;;;;;;-1.82;65.85;99975.31;5091779;28;20062;-38
2021/12/24 06:38:35;;;;;;;49.53;21.30;;;;;;;-1.72;66.24;99980.63;5091626;28;20114;-37
2021/12/24 06:41:00;;;;;;;46.70;22.25;;;;;;;-1.74;67.34;99981.72;5091539;28;20122;-37
2021/12/24 06:43:26;;;;;;;42.75;20.98;;;;;;;-1.55;67.01;99978.50;5091602;28;20036;-37
2021/12/24 06:45:51;;;;;;;46.85;22.40;;;;;;;-1.33;65.91;99967.19;5091216;28;20134;-37
2021/12/24 06:48:17;;;;;;;44.78;21.83;;;;;;;-1.01;63.66;99964.63;5091457;28;20031;-37
2021/12/24 06:50:43;;;;;;;46.35;21.02;;;;;;;-0.67;63.16;99967.13;5091334;28;20024;-37
2021/12/24 06:53:08;;;;;;;49.45;22.40;;;;;;;-1.01;62.62;99957.63;5091656;28;20488;-37
2021/12/24 06:55:34;;;;;;;49.38;22.00;;;;;;;-1.05;62.96;99953.63;5090891;28;20565;-37
2021/12/24 06:57:59;;;;;;;48.97;22.27;;;;;;;-0.74;63.83;99963.34;5079262;28;20035;-37
2021/12/24 07:00:25;;;;;;;44.95;21.63;;;;;;;-0.46;61.98;99957.53;5070151;28;20093;-38
2021/12/24 07:02:50;;;;;;;43.05;20.92;;;;;;;1.61;65.53;99956.13;5071037;28;20021;-38
2021/12/24 07:05:16;;;;;;;43.45;22.25;;;;;;;2.20;57.98;99950.75;5071120;28;20031;-38
2021/12/24 07:07:41;;;;;;;44.75;22.20;;;;;;;2.03;54.50;99958.38;5071159;28;20218;-38
2021/12/24 07:10:08;;;;;;;48.90;22.40;;;;;;;2.06;54.02;99946.78;5070802;28;20056;-38
2021/12/24 07:12:34;;;;;;;48.22;23.88;;;;;;;2.08;54.29;99934.34;5070412;28;20051;-38
2021/12/24 07:14:59;;;;;;;45.63;21.65;;;;;;;1.88;53.81;99938.81;5070224;28;20016;-38
2021/12/24 07:17:25;;;;;;;48.03;22.55;;;;;;;1.79;53.84;99945.75;5070261;28;20017;-38
2021/12/24 07:19:50;;;;;;;46.50;23.48;;;;;;;1.63;54.82;99945.50;5069385;28;20536;-37
2021/12/24 07:22:18;;;;;;;44.17;22.70;;;;;;;1.84;54.89;99950.56;5069446;28;20024;-38
2021/12/24 07:24:44;;;;;;;41.80;21.45;;;;;;;1.92;52.61;99942.81;5069732;28;20028;-38
2021/12/24 07:27:09;;;;;;;40.95;19.58;;;;;;;1.81;52.11;99943.81;5082313;28;20123;-38
2021/12/24 07:29:36;;;;;;;36.38;17.83;;;;;;;1.89;51.87;99936.06;5089891;28;20479;-38
2021/12/24 07:32:02;;;;;;;34.95;17.40;;;;;;;1.82;53.30;99928.91;5089882;28;20577;-38
2021/12/24 07:34:28;;;;;;;39.80;19.83;;;;;;;2.08;53.15;99939.59;5091094;28;20016;-38
2021/12/24 07:36:53;;;;;;;36.45;18.98;;;;;;;2.03;53.44;99941.81;5091045;28;20153;-38
2021/12/24 07:39:19;;;;;;;36.78;18.02;;;;;;;2.04;51.80;99941.69;5090984;28;20097;-38
2021/12/24 07:41:45;;;;;;;33.72;17.58;;;;;;;2.03;52.52;99926.06;5091003;28;20030;-38
2021/12/24 07:44:11;;;;;;;39.13;17.67;;;;;;;1.86;53.10;99938.97;5090563;28;20487;-39
2021/12/24 07:46:46;;;;;;;32.30;17.10;;;;;;;2.04;53.68;99939.06;5090605;28;20051;-39
2021/12/24 07:49:18;;;;;;;34.83;16.60;;;;;;;2.16;52.12;99952.84;5090195;28;20074;-39
2021/12/24 07:54:29;;;;;;;60.22;28.50;;;;;;;2.15;53.67;99961.66;5090215;28;20042;-38
2021/12/24 07:56:55;;;;;;;48.58;22.52;;;;;;;2.45;52.06;99944.00;5089797;28;20024;-37
2021/12/24 07:59:20;;;;;;;43.85;21.02;;;;;;;2.64;52.22;99930.75;5089942;28;20016;-38
2021/12/24 08:01:47;;;;;;;42.55;22.63;;;;;;;2.81;51.51;99929.13;5090179;28;20035;-38
2021/12/24 08:04:13;;;;;;;40.22;21.95;;;;;;;2.97;50.52;99931.09;5089014;28;20028;-38
2021/12/24 08:06:38;;;;;;;45.63;21.63;;;;;;;2.88;51.54;99945.97;5090014;28;20044;-38
2021/12/24 08:09:06;;;;;;;49.38;22.40;;;;;;;6.43;53.99;99945.09;5089794;28;20093;-39
2021/12/24 08:11:35;;;;;;;48.22;24.13;;;;;;;6.85;45.61;99935.16;5089260;28;20032;-39
2021/12/24 08:14:03;;;;;;;46.22;23.98;;;;;;;5.95;44.77;99936.34;5088733;28;20043;-39
2021/12/24 08:16:29;;;;;;;49.78;25.50;;;;;;;5.16;44.75;99933.41;5088877;28;20012;-38
2021/12/24 08:18:55;;;;;;;48.97;26.10;;;;;;;4.85;45.35;99912.09;5089506;28;20107;-38
2021/12/24 08:21:21;;;;;;;44.53;24.00;;;;;;;4.20;46.25;99916.16;5089363;28;20544;-38
2021/12/24 08:23:47;;;;;;;45.35;24.55;;;;;;;4.05;47.61;99918.56;5089851;28;20028;-39
2021/12/24 08:26:13;;;;;;;50.92;26.05;;;;;;;3.78;47.44;99905.59;5089626;28;20032;-38
2021/12/24 08:28:39;;;;;;;51.85;25.13;;;;;;;4.03;48.40;99899.44;5089438;28;20640;-38
2021/12/24 08:31:04;;;;;;;49.90;25.77;;;;;;;3.70;48.50;99895.81;5089281;28;20024;-38
2021/12/24 08:33:30;;;;;;;44.05;24.42;;;;;;;4.08;47.66;99891.91;5088205;28;20024;-38
2021/12/24 08:35:56;;;;;;;50.88;26.02;;;;;;;3.81;47.70;99866.59;5089711;28;20028;-38
2021/12/24 08:38:21;;;;;;;48.30;25.83;;;;;;;4.23;46.43;99888.69;5089084;28;20043;-38
2021/12/24 08:40:47;;;;;;;295.65;117.93;;;;;;;3.92;48.83;99876.88;5089205;28;20468;-39
2021/12/24 08:43:12;;;;;;;58.00;28.30;;;;;;;3.85;47.72;99875.84;5089705;28;20031;-38
2021/12/24 08:45:38;;;;;;;60.33;28.02;;;;;;;3.91;47.77;99875.19;5089767;28;20035;-38
2021/12/24 08:48:04;;;;;;;47.92;25.48;;;;;;;4.21;46.14;99883.56;5089782;28;20130;-38
2021/12/24 08:50:29;;;;;;;50.90;26.48;;;;;;;4.36;47.64;99886.44;5089537;28;20024;-38
2021/12/24 08:52:55;;;;;;;60.72;26.83;;;;;;;4.45;48.55;99877.53;5089250;28;20375;-38
2021/12/24 08:55:20;;;;;;;49.67;26.50;;;;;;;4.29;47.00;99874.88;5088946;28;20024;-38
2021/12/24 08:57:46;;;;;;;54.80;27.27;;;;;;;4.24;46.63;99877.97;5089440;28;20024;-39
2021/12/24 09:00:12;;;;;;;55.70;27.60;;;;;;;4.23;46.17;99875.53;5089493;28;20093;-37
2021/12/24 09:02:38;;;;;;;51.65;28.50;;;;;;;4.57;45.77;99864.06;5089337;28;20024;-38
2021/12/24 09:05:04;;;;;;;61.05;29.02;;;;;;;4.53;45.77;99870.66;5089838;28;20024;-39
2021/12/24 09:07:30;;;;;;;59.53;31.10;;;;;;;4.75;45.68;99863.94;5089118;28;20052;-38
2021/12/24 09:09:55;;;;;;;55.00;28.63;;;;;;;4.70;45.60;99864.41;5089221;28;20427;-38
2021/12/24 09:12:21;;;;;;;55.95;27.63;;;;;;;3.95;46.62;99857.28;5089177;28;20024;-39
2021/12/24 09:14:46;;;;;;;66.32;31.92;;;;;;;4.06;47.55;99859.63;5089223;28;20024;-38
2021/12/24 09:17:12;;;;;;;110.78;42.83;;;;;;;4.31;47.82;99857.09;5089109;28;20032;-39
2021/12/24 09:19:44;;;;;;;71.93;37.30;;;;;;;4.17;47.56;99850.63;5089515;28;20313;-39
2021/12/24 09:22:16;;;;;;;85.25;42.60;;;;;;;4.18;48.93;99852.28;5088400;28;20097;-39
2021/12/24 09:24:42;;;;;;;77.57;39.67;;;;;;;4.56;47.53;99844.00;5089118;28;20047;-37
2021/12/24 09:27:08;;;;;;;85.95;40.78;;;;;;;4.73;47.16;99836.94;5088313;28;20030;-39
2021/12/24 09:29:33;;;;;;;79.95;40.05;;;;;;;4.37;47.91;99818.75;5088094;28;20021;-39
2021/12/24 09:31:59;;;;;;;62.55;34.33;;;;;;;4.26;47.77;99812.78;5088448;28;20089;-38
2021/12/24 09:34:24;;;;;;;62.95;32.45;;;;;;;4.57;46.28;99801.66;5089047;28;20388;-38
2021/12/24 09:36:50;;;;;;;49.72;24.40;;;;;;;4.89;44.38;99790.31;5088514;28;20028;-38
2021/12/24 09:39:15;;;;;;;47.55;24.45;;;;;;;5.03;44.33;99780.06;5088860;28;20109;-38
2021/12/24 09:41:41;;;;;;;44.95;23.27;;;;;;;4.77;44.05;99757.31;5088690;28;20023;-39
2021/12/24 09:44:07;;;;;;;47.20;23.63;;;;;;;4.96;43.39;99748.25;5088553;28;20026;-38
2021/12/24 09:46:32;;;;;;;45.63;23.50;;;;;;;5.09;44.26;99747.75;5087271;28;20123;-38
2021/12/24 09:48:58;;;;;;;39.38;20.83;;;;;;;5.11;43.15;99744.94;5088371;28;20030;-39
2021/12/24 09:51:26;;;;;;;37.33;18.90;;;;;;;5.14;43.20;99747.22;5088414;28;20043;-38
2021/12/24 09:53:51;;;;;;;36.33;20.42;;;;;;;5.48;43.12;99744.34;5088690;28;20027;-38
2021/12/24 09:56:17;;;;;;;34.20;18.38;;;;;;;5.47;42.20;99734.78;5088226;28;20085;-38
2021/12/24 09:58:42;;;;;;;34.25;17.95;;;;;;;5.61;42.35;99735.88;5088551;28;20054;-38
2021/12/24 10:01:08;;;;;;;33.67;17.40;;;;;;;5.52;42.13;99736.91;5088266;28;20024;-39
2021/12/24 10:03:37;;;;;;;38.13;18.55;;;;;;;5.22;42.21;99734.84;5087973;28;20103;-38
2021/12/24 10:06:03;;;;;;;35.22;17.40;;;;;;;5.20;42.66;99742.13;5087873;28;20064;-38
2021/12/24 10:08:29;;;;;;;34.15;17.83;;;;;;;5.46;42.23;99738.41;5088028;28;20144;-38
2021/12/24 10:11:06;;;;;;;36.38;17.10;;;;;;;5.08;42.49;99738.16;5086847;28;20069;-38
2021/12/24 10:13:46;;;;;;;36.90;18.15;;;;;;;5.19;41.80;99723.81;5087724;28;20054;-39
2021/12/24 10:16:22;;;;;;;33.55;16.48;;;;;;;5.22;42.61;99707.66;5086786;28;20020;-38
2021/12/24 10:18:54;;;;;;;32.58;17.77;;;;;;;5.47;42.26;99701.28;5087803;28;20673;-38
2021/12/24 10:21:20;;;;;;;42.28;18.63;;;;;;;5.59;41.67;99696.44;5088829;28;20111;-38
2021/12/24 10:23:47;;;;;;;34.58;17.52;;;;;;;5.49;42.48;99706.41;5088688;28;20099;-38
2021/12/24 10:26:14;;;;;;;31.42;18.17;;;;;;;5.68;42.52;99698.06;5088202;28;20039;-38
2021/12/24 10:28:56;;;;;;;37.63;17.70;;;;;;;5.46;42.72;99714.66;5088315;28;20464;-39
2021/12/24 10:31:27;;;;;;;36.50;17.92;;;;;;;5.86;42.37;99678.47;5088183;28;20047;-39
2021/12/24 10:34:10;;;;;;;36.80;17.80;;;;;;;5.81;41.73;99689.56;5086971;28;20146;-38
2021/12/24 10:36:54;;;;;;;32.75;17.92;;;;;;;5.69;42.17;99661.91;5091510;28;20039;-38
2021/12/24 10:39:25;;;;;;;36.97;19.48;;;;;;;6.25;41.56;99686.34;5091713;28;20024;-38
2021/12/24 10:41:51;;;;;;;32.95;18.88;;;;;;;6.22;41.28;99678.75;5091535;28;20052;-38
2021/12/24 10:44:21;;;;;;;39.90;19.58;;;;;;;5.95;42.65;99672.19;5092034;28;20031;-38
2021/12/24 10:47:05;;;;;;;36.47;20.55;;;;;;;5.89;43.06;99672.84;5091803;28;20020;-39
2021/12/24 10:49:55;;;;;;;37.50;20.00;;;;;;;5.47;43.68;99659.06;5091337;28;20024;-39
2021/12/24 10:54:52;;;;;;;42.67;22.52;;;;;;;5.92;42.80;99661.09;5090416;28;20111;-39
2021/12/24 10:57:20;;;;;;;42.38;21.35;;;;;;;5.78;43.39;99660.84;5088174;28;20093;-39
2021/12/24 10:59:48;;;;;;;44.30;22.75;;;;;;;5.86;43.10;99652.06;5091171;28;20104;-38
2021/12/24 11:02:13;;;;;;;38.97;21.13;;;;;;;5.67;43.50;99656.81;5090984;28;20052;-38
2021/12/24 11:04:39;;;;;;;38.45;19.70;;;;;;;5.96;43.15;99655.34;5090880;28;20252;-38
2021/12/24 11:07:30;;;;;;;35.55;20.02;;;;;;;5.96;43.37;99662.44;5088601;28;20067;-40
2021/12/24 11:10:15;;;;;;;43.15;23.00;;;;;;;5.32;45.03;99652.03;5090480;28;20024;-38
2021/12/24 11:12:48;;;;;;;48.85;23.63;;;;;;;6.22;46.28;99644.41;5084851;28;20040;-38
2021/12/24 11:15:27;;;;;;;40.90;22.65;;;;;;;5.92;44.28;99634.69;5089501;28;20126;-38
2021/12/24 11:18:00;;;;;;;39.78;22.52;;;;;;;5.66;44.60;99625.31;5086045;28;20092;-38
2021/12/24 11:20:27;;;;;;;39.40;22.17;;;;;;;5.42;44.63;99634.16;5073780;28;20016;-38
2021/12/24 11:23:23;;;;;;;37.53;19.98;;;;;;;5.44;44.29;99625.06;5070082;28;20051;-39
2021/12/24 11:25:54;;;;;;;34.42;19.02;;;;;;;5.25;45.38;99621.06;5069179;28;20033;-39
2021/12/24 11:28:20;;;;;;;39.05;19.15;;;;;;;5.71;43.76;99622.94;5085687;28;20149;-38
2021/12/24 11:30:49;;;;;;;38.42;20.08;;;;;;;6.06;43.86;99620.78;5090734;28;20170;-38
2021/12/24 11:33:16;;;;;;;37.60;17.25;;;;;;;6.03;42.87;99616.63;5091017;28;20024;-38
2021/12/24 11:35:43;;;;;;;30.67;15.80;;;;;;;5.97;43.55;99616.53;5089979;28;20028;-38
2021/12/24 11:38:14;;;;;;;34.53;16.73;;;;;;;6.03;42.77;99608.72;5090359;28;20547;-39
2021/12/24 11:40:40;;;;;;;35.63;17.08;;;;;;;6.14;42.77;99610.13;5089453;28;20552;-39
2021/12/24 11:43:05;;;;;;;30.85;15.10;;;;;;;6.16;42.71;99599.38;5088388;28;20024;-39
2021/12/24 11:45:33;;;;;;;25.40;14.50;;;;;;;6.32;41.38;99599.25;5087727;28;20038;-38
2021/12/24 11:47:58;;;;;;;31.08;14.90;;;;;;;6.54;40.62;99586.97;5090289;28;20028;-38
2021/12/24 11:50:24;;;;;;;25.73;13.30;;;;;;;6.77;41.21;99581.59;5089407;28;20047;-39
2021/12/24 11:52:51;;;;;;;24.38;12.95;;;;;;;6.41;41.15;99581.47;5089392;28;20031;-38
2021/12/24 11:55:18;;;;;;;26.67;12.93;;;;;;;6.18;41.81;99577.06;5088811;28;20503;-38
2021/12/24 11:57:57;;;;;;;24.50;11.98;;;;;;;6.17;41.60;99566.66;5088552;28;20020;-38
2021/12/24 12:00:35;;;;;;;24.17;12.57;;;;;;;6.28;41.64;99560.13;5089931;28;20024;-39
2021/12/24 12:03:00;;;;;;;22.02;12.63;;;;;;;6.51;41.28;99545.03;5090047;28;20035;-39
2021/12/24 12:05:32;;;;;;;24.20;12.75;;;;;;;6.17;42.35;99549.00;5089788;28;20024;-38
2021/12/24 12:08:25;;;;;;;24.08;13.07;;;;;;;6.64;41.52;99547.03;5091057;28;20093;-38
2021/12/24 12:11:01;;;;;;;22.23;11.50;;;;;;;6.55;42.31;99554.25;5090925;28;20032;-38
2021/12/24 12:13:46;;;;;;;25.88;12.75;;;;;;;6.47;41.99;99549.03;5090936;28;20028;-39
2021/12/24 12:16:23;;;;;;;22.42;11.43;;;;;;;6.35;42.21;99543.38;5090769;28;20039;-39
2021/12/24 12:19:03;;;;;;;23.27;12.18;;;;;;;6.20;42.47;99527.50;5090691;28;20406;-39
2021/12/24 12:21:42;;;;;;;23.38;12.80;;;;;;;6.67;41.72;99525.50;5090827;28;20099;-39
2021/12/24 12:26:46;;;;;;;19.75;11.35;;;;;;;6.80;41.09;99522.22;5090286;28;20055;-38
2021/12/24 12:29:19;;;;;;;20.52;10.77;;;;;;;6.69;41.56;99526.16;5090312;28;20044;-38
2021/12/24 12:31:45;;;;;;;20.05;11.32;;;;;;;6.68;41.92;99524.50;5090411;28;20026;-38
2021/12/24 12:34:38;;;;;;;20.58;10.63;;;;;;;6.75;41.26;99500.78;5089689;28;20036;-39
2021/12/24 12:37:17;;;;;;;22.23;11.02;;;;;;;6.89;41.08;99525.56;5089787;28;20020;-39
2021/12/24 12:39:44;;;;;;;20.58;11.52;;;;;;;7.19;40.88;99521.06;5090082;28;20047;-38
2021/12/24 12:42:10;;;;;;;22.60;12.52;;;;;;;7.20;40.54;99528.81;5090355;28;20028;-38
2021/12/24 12:44:37;;;;;;;25.15;11.70;;;;;;;6.98;40.90;99529.75;5089990;28;20043;-39
2021/12/24 12:47:10;;;;;;;24.42;12.43;;;;;;;6.93;41.41;99521.56;5089767;28;20024;-38
2021/12/24 12:49:36;;;;;;;25.83;12.65;;;;;;;6.76;41.74;99524.41;5088258;28;20031;-38
2021/12/24 12:52:07;;;;;;;24.52;13.15;;;;;;;6.70;42.26;99514.59;5090010;28;20032;-38
2021/12/24 12:54:32;;;;;;;29.58;15.32;;;;;;;6.52;42.39;99511.47;5089795;28;20078;-38
2021/12/24 12:57:20;;;;;;;34.70;17.90;;;;;;;6.59;42.25;99515.84;5088801;28;20035;-38
2021/12/24 13:00:07;;;;;;;35.63;17.85;;;;;;;6.52;42.94;99527.34;5088097;28;20032;-38
2021/12/24 13:02:56;;;;;;;43.17;21.02;;;;;;;6.64;42.83;99531.16;5089817;28;20048;-38
2021/12/24 13:05:21;;;;;;;41.47;21.35;;;;;;;6.99;42.10;99529.59;5083612;28;20039;-38
2021/12/24 13:07:47;;;;;;;41.90;22.73;;;;;;;6.92;42.49;99526.03;5089738;28;20032;-38
2021/12/24 13:10:16;;;;;;;46.53;23.05;;;;;;;6.55;43.77;99534.91;5088514;28;20368;-39